sensor_id;sensor_type;location;lat;lon;timestamp;P1;durP1;ratioP1;P2;durP2;ratioP2
79670;SDS011;69137;50.878;8.050;2023-04-12T00:00:42;7.90;;;3.03;;
79670;SDS011;69137;50.878;8.050;2023-04-12T00:03:08;7.50;;;3.10;;
79670;SDS011;69137;50.878;8.050;2023-04-12T00:05:34;11.57;;;4.10;;
79670;SDS011;69137;50.878;8.050;2023-04-12T00:08:00;6.22;;;3.35;;
79670;SDS011;69137;50.878;8.050;2023-04-12T00:10:29;5.88;;;3.25;;
79670;SDS011;69137;50.878;8.050;2023-04-12T00:12:54;10.05;;;3.83;;
79670;SDS011;69137;50.878;8.050;2023-04-12T00:15:20;6.72;;;3.22;;
79670;SDS011;69137;50.878;8.050;2023-04-12T00:17:45;5.70;;;2.92;;
79670;SDS011;69137;50.878;8.050;2023-04-12T00:20:11;7.72;;;3.28;;
79670;SDS011;69137;50.878;8.050;2023-04-12T00:22:39;8.23;;;3.03;;
79670;SDS011;69137;50.878;8.050;2023-04-12T00:25:09;6.13;;;3.28;;
79670;SDS011;69137;50.878;8.050;2023-04-12T00:27:35;6.07;;;3.22;;
79670;SDS011;69137;50.878;8.050;2023-04-12T00:30:01;9.88;;;3.40;;
79670;SDS011;69137;50.878;8.050;2023-04-12T00:32:27;8.30;;;3.05;;
79670;SDS011;69137;50.878;8.050;2023-04-12T00:34:53;4.60;;;2.83;;
79670;SDS011;69137;50.878;8.050;2023-04-12T00:37:18;7.32;;;2.72;;
79670;SDS011;69137;50.878;8.050;2023-04-12T00:39:44;7.00;;;2.45;;
79670;SDS011;69137;50.878;8.050;2023-04-12T00:42:10;6.70;;;2.80;;
79670;SDS011;69137;50.878;8.050;2023-04-12T00:44:35;5.85;;;2.90;;
79670;SDS011;69137;50.878;8.050;2023-04-12T00:47:04;6.65;;;2.47;;
79670;SDS011;69137;50.878;8.050;2023-04-12T00:49:31;6.80;;;3.38;;
79670;SDS011;69137;50.878;8.050;2023-04-12T00:52:03;10.60;;;3.50;;
79670;SDS011;69137;50.878;8.050;2023-04-12T00:54:32;5.18;;;3.05;;
79670;SDS011;69137;50.878;8.050;2023-04-12T00:56:59;8.00;;;2.67;;
79670;SDS011;69137;50.878;8.050;2023-04-12T00:59:25;4.13;;;2.13;;
79670;SDS011;69137;50.878;8.050;2023-04-12T01:01:51;8.52;;;2.97;;
79670;SDS011;69137;50.878;8.050;2023-04-12T01:04:17;5.15;;;1.83;;
79670;SDS011;69137;50.878;8.050;2023-04-12T01:12:40;5.05;;;2.00;;
79670;SDS011;69137;50.878;8.050;2023-04-12T01:15:16;4.68;;;1.73;;
79670;SDS011;69137;50.878;8.050;2023-04-12T01:17:51;5.38;;;2.13;;
79670;SDS011;69137;50.878;8.050;2023-04-12T01:20:32;6.72;;;1.63;;
79670;SDS011;69137;50.878;8.050;2023-04-12T01:28:16;7.20;;;2.00;;
79670;SDS011;69137;50.878;8.050;2023-04-12T01:30:56;6.95;;;1.58;;
79670;SDS011;69137;50.878;8.050;2023-04-12T01:33:24;3.30;;;1.63;;
79670;SDS011;69137;50.878;8.050;2023-04-12T01:35:55;7.68;;;1.88;;
79670;SDS011;69137;50.878;8.050;2023-04-12T01:40:49;6.88;;;2.30;;
79670;SDS011;69137;50.878;8.050;2023-04-12T01:43:14;3.53;;;1.70;;
79670;SDS011;69137;50.878;8.050;2023-04-12T01:45:40;3.80;;;1.60;;
79670;SDS011;69137;50.878;8.050;2023-04-12T01:48:09;4.13;;;1.58;;
79670;SDS011;69137;50.878;8.050;2023-04-12T01:53:25;5.10;;;1.80;;
79670;SDS011;69137;50.878;8.050;2023-04-12T01:56:03;4.25;;;1.67;;
79670;SDS011;69137;50.878;8.050;2023-04-12T01:58:32;8.93;;;2.00;;
79670;SDS011;69137;50.878;8.050;2023-04-12T02:00:58;4.93;;;1.60;;
79670;SDS011;69137;50.878;8.050;2023-04-12T02:05:54;6.93;;;1.80;;
79670;SDS011;69137;50.878;8.050;2023-04-12T02:08:23;3.83;;;1.80;;
79670;SDS011;69137;50.878;8.050;2023-04-12T02:10:48;6.97;;;1.90;;
79670;SDS011;69137;50.878;8.050;2023-04-12T02:13:15;8.00;;;1.73;;
79670;SDS011;69137;50.878;8.050;2023-04-12T02:15:42;6.70;;;1.70;;
79670;SDS011;69137;50.878;8.050;2023-04-12T02:18:08;4.57;;;1.70;;
79670;SDS011;69137;50.878;8.050;2023-04-12T02:20:33;4.95;;;1.65;;
79670;SDS011;69137;50.878;8.050;2023-04-12T02:22:59;4.97;;;1.75;;
79670;SDS011;69137;50.878;8.050;2023-04-12T02:25:25;6.30;;;1.92;;
79670;SDS011;69137;50.878;8.050;2023-04-12T02:27:51;4.22;;;1.80;;
79670;SDS011;69137;50.878;8.050;2023-04-12T02:30:16;2.10;;;1.42;;
79670;SDS011;69137;50.878;8.050;2023-04-12T02:32:42;8.75;;;2.00;;
79670;SDS011;69137;50.878;8.050;2023-04-12T02:35:12;2.83;;;1.58;;
79670;SDS011;69137;50.878;8.050;2023-04-12T02:37:41;4.03;;;1.58;;
79670;SDS011;69137;50.878;8.050;2023-04-12T02:40:08;4.85;;;2.22;;
79670;SDS011;69137;50.878;8.050;2023-04-12T02:42:34;5.63;;;1.77;;
79670;SDS011;69137;50.878;8.050;2023-04-12T02:45:00;5.32;;;1.60;;
79670;SDS011;69137;50.878;8.050;2023-04-12T02:47:26;4.32;;;1.92;;
79670;SDS011;69137;50.878;8.050;2023-04-12T02:49:53;5.97;;;1.60;;
79670;SDS011;69137;50.878;8.050;2023-04-12T02:52:19;5.50;;;1.80;;
79670;SDS011;69137;50.878;8.050;2023-04-12T02:54:44;2.50;;;1.80;;
79670;SDS011;69137;50.878;8.050;2023-04-12T02:57:09;4.70;;;2.00;;
79670;SDS011;69137;50.878;8.050;2023-04-12T02:59:35;8.98;;;2.88;;
79670;SDS011;69137;50.878;8.050;2023-04-12T03:02:01;3.88;;;2.13;;
79670;SDS011;69137;50.878;8.050;2023-04-12T03:04:26;6.63;;;1.77;;
79670;SDS011;69137;50.878;8.050;2023-04-12T03:06:54;5.78;;;2.03;;
79670;SDS011;69137;50.878;8.050;2023-04-12T03:09:20;5.30;;;1.95;;
79670;SDS011;69137;50.878;8.050;2023-04-12T03:11:47;5.40;;;1.90;;
79670;SDS011;69137;50.878;8.050;2023-04-12T03:14:12;5.72;;;1.90;;
79670;SDS011;69137;50.878;8.050;2023-04-12T03:16:38;4.70;;;1.98;;
79670;SDS011;69137;50.878;8.050;2023-04-12T03:19:04;6.28;;;2.05;;
79670;SDS011;69137;50.878;8.050;2023-04-12T03:21:30;5.47;;;1.88;;
79670;SDS011;69137;50.878;8.050;2023-04-12T03:23:57;6.30;;;2.42;;
79670;SDS011;69137;50.878;8.050;2023-04-12T03:26:23;6.10;;;1.77;;
79670;SDS011;69137;50.878;8.050;2023-04-12T03:28:50;3.42;;;1.65;;
79670;SDS011;69137;50.878;8.050;2023-04-12T03:31:28;3.53;;;2.10;;
79670;SDS011;69137;50.878;8.050;2023-04-12T03:33:55;5.32;;;1.80;;
79670;SDS011;69137;50.878;8.050;2023-04-12T03:36:20;4.20;;;1.60;;
79670;SDS011;69137;50.878;8.050;2023-04-12T03:38:46;3.33;;;1.48;;
79670;SDS011;69137;50.878;8.050;2023-04-12T03:41:11;6.82;;;1.63;;
79670;SDS011;69137;50.878;8.050;2023-04-12T03:43:37;3.35;;;1.60;;
79670;SDS011;69137;50.878;8.050;2023-04-12T03:46:03;4.35;;;1.73;;
79670;SDS011;69137;50.878;8.050;2023-04-12T03:48:29;2.95;;;1.80;;
79670;SDS011;69137;50.878;8.050;2023-04-12T03:50:55;2.13;;;1.60;;
79670;SDS011;69137;50.878;8.050;2023-04-12T03:53:23;4.50;;;1.70;;
79670;SDS011;69137;50.878;8.050;2023-04-12T03:55:51;4.82;;;1.65;;
79670;SDS011;69137;50.878;8.050;2023-04-12T03:58:16;2.70;;;1.52;;
79670;SDS011;69137;50.878;8.050;2023-04-12T04:00:42;3.08;;;1.30;;
79670;SDS011;69137;50.878;8.050;2023-04-12T04:03:08;4.53;;;1.70;;
79670;SDS011;69137;50.878;8.050;2023-04-12T04:05:34;2.28;;;1.42;;
79670;SDS011;69137;50.878;8.050;2023-04-12T04:08:00;4.50;;;1.50;;
79670;SDS011;69137;50.878;8.050;2023-04-12T04:10:29;6.47;;;1.70;;
79670;SDS011;69137;50.878;8.050;2023-04-12T04:12:55;3.95;;;1.50;;
79670;SDS011;69137;50.878;8.050;2023-04-12T04:15:20;2.28;;;1.40;;
79670;SDS011;69137;50.878;8.050;2023-04-12T04:17:46;1.35;;;1.02;;
79670;SDS011;69137;50.878;8.050;2023-04-12T04:20:13;1.67;;;1.20;;
79670;SDS011;69137;50.878;8.050;2023-04-12T04:22:39;2.45;;;1.45;;
79670;SDS011;69137;50.878;8.050;2023-04-12T04:25:06;3.13;;;1.42;;
79670;SDS011;69137;50.878;8.050;2023-04-12T04:27:32;1.52;;;1.33;;
79670;SDS011;69137;50.878;8.050;2023-04-12T04:30:02;2.53;;;1.40;;
79670;SDS011;69137;50.878;8.050;2023-04-12T04:32:29;1.35;;;1.20;;
79670;SDS011;69137;50.878;8.050;2023-04-12T04:34:55;1.65;;;1.13;;
79670;SDS011;69137;50.878;8.050;2023-04-12T04:39:49;2.05;;;1.63;;
79670;SDS011;69137;50.878;8.050;2023-04-12T04:42:15;2.20;;;1.25;;
79670;SDS011;69137;50.878;8.050;2023-04-12T04:44:40;2.75;;;1.20;;
79670;SDS011;69137;50.878;8.050;2023-04-12T04:47:06;4.07;;;1.40;;
79670;SDS011;69137;50.878;8.050;2023-04-12T04:49:32;2.75;;;1.20;;
79670;SDS011;69137;50.878;8.050;2023-04-12T04:51:58;3.05;;;0.90;;
79670;SDS011;69137;50.878;8.050;2023-04-12T04:54:23;1.90;;;1.20;;
79670;SDS011;69137;50.878;8.050;2023-04-12T04:56:49;1.60;;;1.20;;
79670;SDS011;69137;50.878;8.050;2023-04-12T04:59:14;1.35;;;1.15;;
79670;SDS011;69137;50.878;8.050;2023-04-12T05:01:41;2.58;;;1.30;;
79670;SDS011;69137;50.878;8.050;2023-04-12T05:04:07;1.52;;;1.20;;
79670;SDS011;69137;50.878;8.050;2023-04-12T05:06:32;1.30;;;1.10;;
79670;SDS011;69137;50.878;8.050;2023-04-12T05:08:58;2.05;;;0.98;;
79670;SDS011;69137;50.878;8.050;2023-04-12T05:11:25;1.45;;;0.90;;
79670;SDS011;69137;50.878;8.050;2023-04-12T05:13:51;4.68;;;1.65;;
79670;SDS011;69137;50.878;8.050;2023-04-12T05:16:16;4.00;;;1.63;;
79670;SDS011;69137;50.878;8.050;2023-04-12T05:18:42;3.95;;;1.30;;
79670;SDS011;69137;50.878;8.050;2023-04-12T05:21:08;4.60;;;1.30;;
79670;SDS011;69137;50.878;8.050;2023-04-12T05:23:34;1.67;;;1.35;;
79670;SDS011;69137;50.878;8.050;2023-04-12T05:26:02;1.90;;;1.40;;
79670;SDS011;69137;50.878;8.050;2023-04-12T05:28:27;2.13;;;1.38;;
79670;SDS011;69137;50.878;8.050;2023-04-12T05:30:53;1.40;;;1.30;;
79670;SDS011;69137;50.878;8.050;2023-04-12T05:33:18;2.70;;;1.45;;
79670;SDS011;69137;50.878;8.050;2023-04-12T05:35:44;5.60;;;1.55;;
79670;SDS011;69137;50.878;8.050;2023-04-12T05:38:09;2.42;;;1.20;;
79670;SDS011;69137;50.878;8.050;2023-04-12T05:40:35;3.25;;;1.48;;
79670;SDS011;69137;50.878;8.050;2023-04-12T05:43:00;1.95;;;1.13;;
79670;SDS011;69137;50.878;8.050;2023-04-12T05:45:27;1.05;;;0.93;;
79670;SDS011;69137;50.878;8.050;2023-04-12T05:47:53;2.70;;;1.40;;
79670;SDS011;69137;50.878;8.050;2023-04-12T05:50:19;2.03;;;1.30;;
79670;SDS011;69137;50.878;8.050;2023-04-12T05:52:44;4.13;;;1.33;;
79670;SDS011;69137;50.878;8.050;2023-04-12T05:55:12;1.27;;;0.98;;
79670;SDS011;69137;50.878;8.050;2023-04-12T05:57:38;1.73;;;0.82;;
79670;SDS011;69137;50.878;8.050;2023-04-12T06:00:04;3.38;;;1.23;;
79670;SDS011;69137;50.878;8.050;2023-04-12T06:02:38;1.27;;;1.13;;
79670;SDS011;69137;50.878;8.050;2023-04-12T06:05:04;2.45;;;1.50;;
79670;SDS011;69137;50.878;8.050;2023-04-12T06:07:30;2.25;;;1.17;;
79670;SDS011;69137;50.878;8.050;2023-04-12T06:09:56;1.38;;;1.23;;
79670;SDS011;69137;50.878;8.050;2023-04-12T06:12:21;2.03;;;1.50;;
79670;SDS011;69137;50.878;8.050;2023-04-12T06:14:47;2.60;;;1.40;;
79670;SDS011;69137;50.878;8.050;2023-04-12T06:17:12;3.00;;;1.50;;
79670;SDS011;69137;50.878;8.050;2023-04-12T06:19:38;4.05;;;1.70;;
79670;SDS011;69137;50.878;8.050;2023-04-12T06:22:03;1.88;;;1.35;;
79670;SDS011;69137;50.878;8.050;2023-04-12T06:24:28;2.17;;;1.30;;
79670;SDS011;69137;50.878;8.050;2023-04-12T06:26:54;2.40;;;1.35;;
79670;SDS011;69137;50.878;8.050;2023-04-12T06:29:19;2.30;;;1.50;;
79670;SDS011;69137;50.878;8.050;2023-04-12T06:31:45;2.15;;;1.40;;
79670;SDS011;69137;50.878;8.050;2023-04-12T06:34:11;2.05;;;1.70;;
79670;SDS011;69137;50.878;8.050;2023-04-12T06:36:36;2.05;;;1.48;;
79670;SDS011;69137;50.878;8.050;2023-04-12T06:39:04;4.65;;;1.80;;
79670;SDS011;69137;50.878;8.050;2023-04-12T06:41:29;2.05;;;1.40;;
79670;SDS011;69137;50.878;8.050;2023-04-12T06:43:55;1.63;;;1.30;;
79670;SDS011;69137;50.878;8.050;2023-04-12T06:46:26;4.70;;;1.77;;
79670;SDS011;69137;50.878;8.050;2023-04-12T06:48:52;3.20;;;1.80;;
79670;SDS011;69137;50.878;8.050;2023-04-12T06:51:18;2.30;;;1.27;;
79670;SDS011;69137;50.878;8.050;2023-04-12T06:53:43;1.92;;;1.00;;
79670;SDS011;69137;50.878;8.050;2023-04-12T06:56:09;4.70;;;1.20;;
79670;SDS011;69137;50.878;8.050;2023-04-12T06:58:34;1.73;;;1.17;;
79670;SDS011;69137;50.878;8.050;2023-04-12T07:01:06;1.48;;;1.13;;
79670;SDS011;69137;50.878;8.050;2023-04-12T07:03:32;1.58;;;0.90;;
79670;SDS011;69137;50.878;8.050;2023-04-12T07:05:59;1.23;;;0.80;;
79670;SDS011;69137;50.878;8.050;2023-04-12T07:08:26;1.45;;;1.17;;
79670;SDS011;69137;50.878;8.050;2023-04-12T07:10:56;2.40;;;1.40;;
79670;SDS011;69137;50.878;8.050;2023-04-12T07:13:21;1.15;;;1.00;;
79670;SDS011;69137;50.878;8.050;2023-04-12T07:15:48;5.85;;;1.40;;
79670;SDS011;69137;50.878;8.050;2023-04-12T07:18:14;3.83;;;1.50;;
79670;SDS011;69137;50.878;8.050;2023-04-12T07:20:40;1.65;;;1.17;;
79670;SDS011;69137;50.878;8.050;2023-04-12T07:23:06;1.50;;;1.25;;
79670;SDS011;69137;50.878;8.050;2023-04-12T07:25:31;1.85;;;1.05;;
79670;SDS011;69137;50.878;8.050;2023-04-12T07:27:56;1.23;;;1.08;;
79670;SDS011;69137;50.878;8.050;2023-04-12T07:30:22;5.90;;;1.30;;
79670;SDS011;69137;50.878;8.050;2023-04-12T07:32:47;1.48;;;1.15;;
79670;SDS011;69137;50.878;8.050;2023-04-12T07:35:13;1.80;;;1.00;;
79670;SDS011;69137;50.878;8.050;2023-04-12T07:37:39;2.10;;;1.08;;
79670;SDS011;69137;50.878;8.050;2023-04-12T07:40:05;1.30;;;1.10;;
79670;SDS011;69137;50.878;8.050;2023-04-12T07:42:31;1.58;;;1.20;;
79670;SDS011;69137;50.878;8.050;2023-04-12T07:44:56;1.80;;;1.23;;
79670;SDS011;69137;50.878;8.050;2023-04-12T07:47:22;0.98;;;0.85;;
79670;SDS011;69137;50.878;8.050;2023-04-12T07:49:47;1.55;;;1.30;;
79670;SDS011;69137;50.878;8.050;2023-04-12T07:52:13;1.27;;;1.08;;
79670;SDS011;69137;50.878;8.050;2023-04-12T07:54:43;1.45;;;0.90;;
79670;SDS011;69137;50.878;8.050;2023-04-12T07:57:09;2.65;;;1.50;;
79670;SDS011;69137;50.878;8.050;2023-04-12T07:59:36;2.35;;;0.95;;
79670;SDS011;69137;50.878;8.050;2023-04-12T08:02:02;1.50;;;1.13;;
79670;SDS011;69137;50.878;8.050;2023-04-12T08:04:30;2.10;;;1.30;;
79670;SDS011;69137;50.878;8.050;2023-04-12T08:06:57;1.50;;;1.17;;
79670;SDS011;69137;50.878;8.050;2023-04-12T08:09:24;1.17;;;1.08;;
79670;SDS011;69137;50.878;8.050;2023-04-12T08:11:53;1.02;;;0.80;;
79670;SDS011;69137;50.878;8.050;2023-04-12T08:14:23;1.73;;;1.23;;
79670;SDS011;69137;50.878;8.050;2023-04-12T08:16:51;2.03;;;1.33;;
79670;SDS011;69137;50.878;8.050;2023-04-12T08:19:23;1.20;;;1.10;;
79670;SDS011;69137;50.878;8.050;2023-04-12T08:21:51;1.42;;;1.30;;
79670;SDS011;69137;50.878;8.050;2023-04-12T08:24:21;1.20;;;1.10;;
79670;SDS011;69137;50.878;8.050;2023-04-12T08:26:55;1.73;;;1.20;;
79670;SDS011;69137;50.878;8.050;2023-04-12T08:29:29;1.17;;;0.98;;
79670;SDS011;69137;50.878;8.050;2023-04-12T08:32:00;1.55;;;0.93;;
79670;SDS011;69137;50.878;8.050;2023-04-12T08:34:25;1.83;;;1.20;;
79670;SDS011;69137;50.878;8.050;2023-04-12T08:36:51;1.02;;;0.80;;
79670;SDS011;69137;50.878;8.050;2023-04-12T08:39:16;1.30;;;1.00;;
79670;SDS011;69137;50.878;8.050;2023-04-12T08:41:42;3.83;;;1.42;;
79670;SDS011;69137;50.878;8.050;2023-04-12T08:44:07;1.33;;;0.93;;
79670;SDS011;69137;50.878;8.050;2023-04-12T08:46:35;1.35;;;0.98;;
79670;SDS011;69137;50.878;8.050;2023-04-12T08:49:01;1.30;;;1.13;;
79670;SDS011;69137;50.878;8.050;2023-04-12T08:51:26;1.17;;;1.08;;
79670;SDS011;69137;50.878;8.050;2023-04-12T08:53:52;0.93;;;0.75;;
79670;SDS011;69137;50.878;8.050;2023-04-12T08:56:18;1.02;;;0.95;;
79670;SDS011;69137;50.878;8.050;2023-04-12T08:58:46;1.13;;;1.00;;
79670;SDS011;69137;50.878;8.050;2023-04-12T09:03:43;0.80;;;0.80;;
79670;SDS011;69137;50.878;8.050;2023-04-12T09:06:10;1.67;;;1.10;;
79670;SDS011;69137;50.878;8.050;2023-04-12T09:08:58;1.58;;;1.25;;
79670;SDS011;69137;50.878;8.050;2023-04-12T09:11:26;0.93;;;0.93;;
79670;SDS011;69137;50.878;8.050;2023-04-12T09:13:53;1.02;;;0.90;;
79670;SDS011;69137;50.878;8.050;2023-04-12T09:16:36;1.10;;;1.00;;
79670;SDS011;69137;50.878;8.050;2023-04-12T09:19:03;0.95;;;0.93;;
79670;SDS011;69137;50.878;8.050;2023-04-12T09:21:30;1.05;;;0.93;;
79670;SDS011;69137;50.878;8.050;2023-04-12T09:24:14;1.50;;;1.10;;
79670;SDS011;69137;50.878;8.050;2023-04-12T09:26:40;1.25;;;1.20;;
79670;SDS011;69137;50.878;8.050;2023-04-12T09:29:05;2.80;;;0.80;;
79670;SDS011;69137;50.878;8.050;2023-04-12T09:31:59;1.10;;;1.00;;
79670;SDS011;69137;50.878;8.050;2023-04-12T09:34:29;1.00;;;0.90;;
79670;SDS011;69137;50.878;8.050;2023-04-12T09:36:55;2.60;;;1.00;;
79670;SDS011;69137;50.878;8.050;2023-04-12T09:39:30;0.85;;;0.82;;
79670;SDS011;69137;50.878;8.050;2023-04-12T09:42:07;1.55;;;1.30;;
79670;SDS011;69137;50.878;8.050;2023-04-12T09:44:34;1.17;;;1.00;;
79670;SDS011;69137;50.878;8.050;2023-04-12T09:47:00;1.33;;;1.05;;
79670;SDS011;69137;50.878;8.050;2023-04-12T09:49:36;1.10;;;1.00;;
79670;SDS011;69137;50.878;8.050;2023-04-12T09:52:08;1.55;;;1.10;;
79670;SDS011;69137;50.878;8.050;2023-04-12T09:54:42;0.90;;;0.90;;
79670;SDS011;69137;50.878;8.050;2023-04-12T09:57:08;1.20;;;1.10;;
79670;SDS011;69137;50.878;8.050;2023-04-12T09:59:36;1.02;;;0.93;;
79670;SDS011;69137;50.878;8.050;2023-04-12T10:02:06;0.98;;;0.98;;
79670;SDS011;69137;50.878;8.050;2023-04-12T10:04:38;1.25;;;1.00;;
79670;SDS011;69137;50.878;8.050;2023-04-12T10:07:05;1.08;;;0.93;;
79670;SDS011;69137;50.878;8.050;2023-04-12T10:09:31;2.53;;;1.17;;
79670;SDS011;69137;50.878;8.050;2023-04-12T10:11:58;1.30;;;1.20;;
79670;SDS011;69137;50.878;8.050;2023-04-12T10:14:27;1.65;;;1.05;;
79670;SDS011;69137;50.878;8.050;2023-04-12T10:16:54;1.25;;;1.15;;
79670;SDS011;69137;50.878;8.050;2023-04-12T10:19:22;1.48;;;1.00;;
79670;SDS011;69137;50.878;8.050;2023-04-12T10:21:50;1.75;;;1.10;;
79670;SDS011;69137;50.878;8.050;2023-04-12T10:24:15;0.90;;;0.80;;
79670;SDS011;69137;50.878;8.050;2023-04-12T10:26:41;1.83;;;1.30;;
79670;SDS011;69137;50.878;8.050;2023-04-12T10:29:26;1.67;;;1.02;;
79670;SDS011;69137;50.878;8.050;2023-04-12T10:31:52;2.50;;;1.50;;
79670;SDS011;69137;50.878;8.050;2023-04-12T10:34:23;1.30;;;1.10;;
79670;SDS011;69137;50.878;8.050;2023-04-12T10:36:55;2.13;;;1.25;;
79670;SDS011;69137;50.878;8.050;2023-04-12T10:42:17;1.30;;;1.20;;
79670;SDS011;69137;50.878;8.050;2023-04-12T10:44:47;1.13;;;0.95;;
79670;SDS011;69137;50.878;8.050;2023-04-12T10:47:14;1.13;;;1.02;;
79670;SDS011;69137;50.878;8.050;2023-04-12T10:50:18;2.33;;;1.27;;
79670;SDS011;69137;50.878;8.050;2023-04-12T10:53:09;0.80;;;0.80;;
79670;SDS011;69137;50.878;8.050;2023-04-12T10:55:40;1.23;;;1.10;;
79670;SDS011;69137;50.878;8.050;2023-04-12T10:58:07;1.90;;;1.20;;
79670;SDS011;69137;50.878;8.050;2023-04-12T11:03:23;0.90;;;0.90;;
79670;SDS011;69137;50.878;8.050;2023-04-12T11:08:27;1.10;;;0.90;;
79670;SDS011;69137;50.878;8.050;2023-04-12T11:11:17;1.45;;;1.00;;
79670;SDS011;69137;50.878;8.050;2023-04-12T11:13:44;1.17;;;1.10;;
79670;SDS011;69137;50.878;8.050;2023-04-12T11:16:10;1.23;;;0.90;;
79670;SDS011;69137;50.878;8.050;2023-04-12T11:18:37;1.08;;;0.98;;
79670;SDS011;69137;50.878;8.050;2023-04-12T11:21:03;1.40;;;1.10;;
79670;SDS011;69137;50.878;8.050;2023-04-12T11:23:32;1.20;;;1.10;;
79670;SDS011;69137;50.878;8.050;2023-04-12T11:26:00;1.50;;;1.10;;
79670;SDS011;69137;50.878;8.050;2023-04-12T11:28:28;3.35;;;1.20;;
79670;SDS011;69137;50.878;8.050;2023-04-12T11:30:54;1.60;;;1.33;;
79670;SDS011;69137;50.878;8.050;2023-04-12T11:33:33;3.22;;;1.40;;
79670;SDS011;69137;50.878;8.050;2023-04-12T11:36:11;4.93;;;1.45;;
79670;SDS011;69137;50.878;8.050;2023-04-12T11:38:37;3.90;;;1.98;;
79670;SDS011;69137;50.878;8.050;2023-04-12T11:41:03;1.40;;;1.00;;
79670;SDS011;69137;50.878;8.050;2023-04-12T11:43:31;2.25;;;1.20;;
79670;SDS011;69137;50.878;8.050;2023-04-12T11:45:58;2.83;;;1.63;;
79670;SDS011;69137;50.878;8.050;2023-04-12T11:48:25;2.30;;;1.33;;
79670;SDS011;69137;50.878;8.050;2023-04-12T11:50:51;1.75;;;1.35;;
79670;SDS011;69137;50.878;8.050;2023-04-12T11:53:17;0.98;;;0.77;;
79670;SDS011;69137;50.878;8.050;2023-04-12T11:55:49;1.08;;;0.95;;
79670;SDS011;69137;50.878;8.050;2023-04-12T11:58:21;1.23;;;1.02;;
79670;SDS011;69137;50.878;8.050;2023-04-12T12:00:47;1.25;;;1.10;;
79670;SDS011;69137;50.878;8.050;2023-04-12T12:03:13;1.35;;;1.02;;
79670;SDS011;69137;50.878;8.050;2023-04-12T12:05:40;1.05;;;0.90;;
79670;SDS011;69137;50.878;8.050;2023-04-12T12:08:06;0.98;;;0.95;;
79670;SDS011;69137;50.878;8.050;2023-04-12T12:10:36;1.20;;;1.10;;
79670;SDS011;69137;50.878;8.050;2023-04-12T12:13:08;1.20;;;1.10;;
79670;SDS011;69137;50.878;8.050;2023-04-12T12:15:35;1.90;;;1.10;;
79670;SDS011;69137;50.878;8.050;2023-04-12T12:18:00;1.15;;;1.00;;
79670;SDS011;69137;50.878;8.050;2023-04-12T12:20:26;1.02;;;0.70;;
79670;SDS011;69137;50.878;8.050;2023-04-12T12:22:52;1.10;;;1.00;;
79670;SDS011;69137;50.878;8.050;2023-04-12T12:25:18;1.02;;;0.98;;
79670;SDS011;69137;50.878;8.050;2023-04-12T12:27:43;1.02;;;0.98;;
79670;SDS011;69137;50.878;8.050;2023-04-12T12:30:12;0.90;;;0.90;;
79670;SDS011;69137;50.878;8.050;2023-04-12T12:32:41;1.10;;;1.00;;
79670;SDS011;69137;50.878;8.050;2023-04-12T12:35:12;2.85;;;1.00;;
79670;SDS011;69137;50.878;8.050;2023-04-12T12:37:51;1.30;;;1.15;;
79670;SDS011;69137;50.878;8.050;2023-04-12T12:40:29;2.67;;;1.48;;
79670;SDS011;69137;50.878;8.050;2023-04-12T12:42:56;1.67;;;1.00;;
79670;SDS011;69137;50.878;8.050;2023-04-12T12:45:23;0.65;;;0.65;;
79670;SDS011;69137;50.878;8.050;2023-04-12T12:47:50;1.83;;;1.00;;
79670;SDS011;69137;50.878;8.050;2023-04-12T12:50:22;1.20;;;1.02;;
79670;SDS011;69137;50.878;8.050;2023-04-12T12:52:52;1.20;;;0.95;;
79670;SDS011;69137;50.878;8.050;2023-04-12T12:55:19;1.00;;;0.90;;
79670;SDS011;69137;50.878;8.050;2023-04-12T12:57:46;1.58;;;1.13;;
79670;SDS011;69137;50.878;8.050;2023-04-12T13:00:13;1.45;;;1.08;;
79670;SDS011;69137;50.878;8.050;2023-04-12T13:02:40;1.73;;;1.27;;
79670;SDS011;69137;50.878;8.050;2023-04-12T13:05:06;3.42;;;1.30;;
79670;SDS011;69137;50.878;8.050;2023-04-12T13:07:32;1.23;;;0.93;;
79670;SDS011;69137;50.878;8.050;2023-04-12T13:09:58;1.48;;;1.20;;
79670;SDS011;69137;50.878;8.050;2023-04-12T13:12:24;1.60;;;1.20;;
79670;SDS011;69137;50.878;8.050;2023-04-12T13:14:49;5.90;;;1.70;;
79670;SDS011;69137;50.878;8.050;2023-04-12T13:17:15;1.83;;;1.55;;
79670;SDS011;69137;50.878;8.050;2023-04-12T13:19:40;3.53;;;2.50;;
79670;SDS011;69137;50.878;8.050;2023-04-12T13:22:06;2.88;;;2.13;;
79670;SDS011;69137;50.878;8.050;2023-04-12T13:24:35;1.65;;;1.20;;
79670;SDS011;69137;50.878;8.050;2023-04-12T13:27:00;1.60;;;1.30;;
79670;SDS011;69137;50.878;8.050;2023-04-12T13:29:27;2.00;;;1.50;;
79670;SDS011;69137;50.878;8.050;2023-04-12T13:31:52;2.95;;;1.50;;
79670;SDS011;69137;50.878;8.050;2023-04-12T13:34:18;2.33;;;1.50;;
79670;SDS011;69137;50.878;8.050;2023-04-12T13:36:44;2.15;;;1.77;;
79670;SDS011;69137;50.878;8.050;2023-04-12T13:39:09;3.90;;;2.05;;
79670;SDS011;69137;50.878;8.050;2023-04-12T13:41:34;5.07;;;2.30;;
79670;SDS011;69137;50.878;8.050;2023-04-12T13:44:00;9.55;;;4.07;;
79670;SDS011;69137;50.878;8.050;2023-04-12T13:46:26;8.68;;;4.53;;
79670;SDS011;69137;50.878;8.050;2023-04-12T13:48:51;4.80;;;3.03;;
79670;SDS011;69137;50.878;8.050;2023-04-12T13:51:17;5.35;;;3.15;;
79670;SDS011;69137;50.878;8.050;2023-04-12T13:53:45;6.60;;;3.00;;
79670;SDS011;69137;50.878;8.050;2023-04-12T13:56:11;3.72;;;2.17;;
79670;SDS011;69137;50.878;8.050;2023-04-12T13:58:36;4.47;;;2.53;;
79670;SDS011;69137;50.878;8.050;2023-04-12T14:03:31;4.03;;;2.83;;
79670;SDS011;69137;50.878;8.050;2023-04-12T14:05:56;2.40;;;2.00;;
79670;SDS011;69137;50.878;8.050;2023-04-12T14:08:22;3.22;;;1.92;;
79670;SDS011;69137;50.878;8.050;2023-04-12T14:10:47;3.47;;;2.10;;
79670;SDS011;69137;50.878;8.050;2023-04-12T14:13:13;3.47;;;2.00;;
79670;SDS011;69137;50.878;8.050;2023-04-12T14:15:38;3.30;;;2.13;;
79670;SDS011;69137;50.878;8.050;2023-04-12T14:18:04;3.67;;;2.28;;
79670;SDS011;69137;50.878;8.050;2023-04-12T14:20:29;6.38;;;2.17;;
79670;SDS011;69137;50.878;8.050;2023-04-12T14:22:55;4.88;;;2.35;;
79670;SDS011;69137;50.878;8.050;2023-04-12T14:25:20;5.20;;;2.47;;
79670;SDS011;69137;50.878;8.050;2023-04-12T14:27:46;3.35;;;2.10;;
79670;SDS011;69137;50.878;8.050;2023-04-12T14:30:12;3.40;;;2.22;;
79670;SDS011;69137;50.878;8.050;2023-04-12T14:32:37;4.28;;;2.10;;
79670;SDS011;69137;50.878;8.050;2023-04-12T14:35:03;3.65;;;2.60;;
79670;SDS011;69137;50.878;8.050;2023-04-12T14:37:30;2.78;;;2.17;;
79670;SDS011;69137;50.878;8.050;2023-04-12T14:39:56;2.67;;;2.13;;
79670;SDS011;69137;50.878;8.050;2023-04-12T14:42:22;3.85;;;1.90;;
79670;SDS011;69137;50.878;8.050;2023-04-12T14:44:47;2.97;;;2.05;;
79670;SDS011;69137;50.878;8.050;2023-04-12T14:47:13;2.85;;;2.00;;
79670;SDS011;69137;50.878;8.050;2023-04-12T14:49:38;3.42;;;1.90;;
79670;SDS011;69137;50.878;8.050;2023-04-12T14:52:04;2.42;;;1.75;;
79670;SDS011;69137;50.878;8.050;2023-04-12T14:54:30;2.63;;;1.70;;
79670;SDS011;69137;50.878;8.050;2023-04-12T14:56:55;3.83;;;2.10;;
79670;SDS011;69137;50.878;8.050;2023-04-12T14:59:21;2.60;;;1.70;;
79670;SDS011;69137;50.878;8.050;2023-04-12T15:01:46;4.15;;;2.13;;
79670;SDS011;69137;50.878;8.050;2023-04-12T15:04:12;2.28;;;1.65;;
79670;SDS011;69137;50.878;8.050;2023-04-12T15:06:37;2.83;;;1.88;;
79670;SDS011;69137;50.878;8.050;2023-04-12T15:09:06;4.18;;;2.13;;
79670;SDS011;69137;50.878;8.050;2023-04-12T15:11:33;3.85;;;1.92;;
79670;SDS011;69137;50.878;8.050;2023-04-12T15:14:00;4.00;;;1.90;;
79670;SDS011;69137;50.878;8.050;2023-04-12T15:16:28;3.13;;;1.75;;
79670;SDS011;69137;50.878;8.050;2023-04-12T15:18:54;3.42;;;1.80;;
79670;SDS011;69137;50.878;8.050;2023-04-12T15:21:19;2.78;;;2.10;;
79670;SDS011;69137;50.878;8.050;2023-04-12T15:23:45;3.25;;;2.08;;